Flight Track Log - Related Links

Times and Time Zones

All times are in EDT time to prevent confusion due to time zone crossing. See the ASQ5861 flight status page for this flight to view local times or setup timezone preferences in your user account.

Time Position Orientation Groundspeed Altitude Reporting Facility
EDT Latitude Longitude Course Direction KTS MPH feet Rate Location/Type
Wed 07:34:50 PM 38.9667 -77.5500 North 192 221 2,900  Level Potomac TRACON
Wed 07:36:42 PM 39.0828 -77.5597 356° North 266 306 6,300 2,093 Climbing Washington Center
Wed 07:37:42 PM 39.1642 -77.5592 360° North 266 306 8,900 2,033 Climbing Washington Center
Wed 07:38:43 PM 39.2408 -77.5881 344° North 272 313 10,400 1,140 Climbing Washington Center
Wed 07:39:43 PM 39.3233 -77.6439 332° Northwest 299 344 11,200 1,059 Climbing Washington Center
Wed 07:40:00 PM 39.5261 -77.4500 North  Level FlightAware Approximate
Wed 07:40:42 PM 39.4233 -77.6442 360° North 316 364 12,500  Level Washington Center
Wed 07:43:06 PM 39.6339 -77.4619 34° Northeast 357 411 16,200 1,463 Climbing New York Center
Wed 07:44:07 PM 39.7344 -77.4528 North 357 411 17,500 1,210 Climbing New York Center
Wed 07:45:05 PM 39.8389 -77.4492 North 362 417 18,600 1,050 Climbing New York Center
Wed 07:46:07 PM 39.9314 -77.4742 348° North 367 422 19,600 1,000 Climbing New York Center
Wed 07:47:05 PM 40.0356 -77.5142 344° North 372 428 20,600 1,059 Climbing New York Center
Wed 07:48:06 PM 40.1539 -77.5556 345° North 389 448 21,700 1,041 Climbing New York Center
Wed 07:49:06 PM 40.2619 -77.5986 343° North 395 455 22,700 958 Climbing New York Center
Wed 07:50:05 PM 40.3725 -77.6367 345° North 400 460 23,600 1,059 Climbing New York Center
Wed 07:51:05 PM 40.4803 -77.6803 343° North 400 460 24,800 1,140 Climbing New York Center
Wed 07:52:06 PM 40.5883 -77.7211 344° North 406 467 25,900 1,103 Climbing New York Center
Wed 07:54:10 PM 40.8025 -77.8044 344° North 405 466 28,200 1,109 Climbing Cleveland Center
Wed 07:55:10 PM 40.9100 -77.8464 344° North 400 460 29,300 900 Climbing Cleveland Center
Wed 07:56:10 PM 41.0172 -77.8889 343° North 400 460 30,000 350 Climbing Cleveland Center
Wed 07:57:10 PM 41.1286 -77.9283 345° North 405 466 30,000  Level Cleveland Center
Wed 07:58:10 PM 41.2444 -77.9733 344° North 415 478 30,000  Level Cleveland Center
Wed 07:59:10 PM 41.3750 -78.0264 343° North 436 502 30,000  Level Cleveland Center
Wed 08:00:10 PM 41.4947 -78.0714 344° North 441 507 30,000  Level Cleveland Center
Wed 08:01:10 PM 41.6147 -78.1194 343° North 441 507 30,000  Level Cleveland Center
Wed 08:02:10 PM 41.7344 -78.1650 344° North 446 513 30,000  Level Cleveland Center
Wed 08:03:10 PM 41.8542 -78.2108 344° North 446 513 30,000  Level Cleveland Center
Wed 08:04:10 PM 41.9719 -78.2622 342° North 446 513 30,000  Level Cleveland Center
Wed 08:05:10 PM 42.0897 -78.3083 344° North 441 507 30,000  Level Cleveland Center
Wed 08:06:10 PM 42.2011 -78.3519 344° North 446 513 30,000 -350 Level Cleveland Center
Wed 08:07:10 PM 42.3186 -78.4011 343° North 446 513 29,300 -850 Descending Cleveland Center
Wed 08:08:10 PM 42.4406 -78.4478 344° North 446 513 28,300 -650 Descending Cleveland Center
Wed 08:09:10 PM 42.5622 -78.4972 343° North 446 513 28,000 -600 Descending Cleveland Center
Wed 08:10:10 PM 42.6797 -78.5442 344° North 441 507 27,100 -950 Descending Cleveland Center
Wed 08:11:10 PM 42.8017 -78.5939 343° North 447 514 26,100 -1,000 Descending Cleveland Center
Wed 08:12:10 PM 42.9194 -78.6553 339° North 447 514 25,100 -1,864 Descending Cleveland Center
Wed 08:14:07 PM 43.0667 -78.9000 310° West 440 506 20,600 -2,339 Descending Toronto Center
Wed 08:15:07 PM 43.1333 -79.0333 304° West 420 483 18,200 -2,200 Descending Toronto Center
Wed 08:16:07 PM 43.2000 -79.1500 308° West 420 483 16,200 -1,800 Descending Toronto Center
Wed 08:17:07 PM 43.2667 -79.2667 308° West 360 414 14,600 -1,600 Descending Toronto Center
Wed 08:18:07 PM 43.3167 -79.3333 316° Northwest 300 345 13,000 -1,750 Descending Toronto Center
Wed 08:19:07 PM 43.4000 -79.3833 336° Northwest 290 334 11,100 -1,800 Descending Toronto Center
Wed 08:20:07 PM 43.4667 -79.4000 350° North 290 334 9,400 -1,550 Descending Toronto Center
Wed 08:21:07 PM 43.5333 -79.4500 331° Northwest 270 311 8,000 -1,250 Descending Toronto Center
Wed 08:22:07 PM 43.5500 -79.5333 285° West 260 299 6,900 -1,150 Descending Toronto Center
Wed 08:23:07 PM 43.5167 -79.6333 245° Southwest 260 299 5,700 -1,250 Descending Toronto Center
Wed 08:24:07 PM 43.4667 -79.7000 224° Southwest 240 276 4,400 -1,150 Descending Toronto Center
Wed 08:25:07 PM 43.4667 -79.7667 270° West 220 253 3,400 -700 Descending Toronto Center
Wed 08:26:07 PM 43.5167 -79.8000 334° Northwest 190 219 3,000 -250 Descending Toronto Center
Wed 08:27:07 PM 43.5500 -79.7500 47° Northeast 170 196 2,900 -250 Descending Toronto Center
Wed 08:28:07 PM 43.5833 -79.7000 47° Northeast 170 196 2,500 -700 Descending Toronto Center
Wed 08:29:07 PM 43.6167 -79.6500 47° Northeast 160 184 1,500 -667 Descending Toronto Center
Wed 08:31:07 PM 43.6667 -79.6167 26° Northeast 110 127 500 -500 Descending Toronto Center

Login

Don't have an account? Register now (free) for customized features, flight alerts, and more!